Time;durP1;ratioP1;P1;durP2;ratioP2;P2;SDS_P1;SDS_P2;PMS_P1;PMS_P2;Temp;Humidity;BMP_temperature;BMP_pressure;BME280_temperature;BME280_humidity;BME280_pressure;Samples;Min_cycle;Max_cycle;Signal;HPM_P1;HPM_P2
2022/10/16 00:01:33;;;;;;;1.35;0.63;;;;;;;22.01;50.65;100845.78;5043222;28;20497;-66
2022/10/16 00:04:00;;;;;;;0.95;0.50;;;;;;;21.96;49.84;100831.94;5061290;28;20023;-66
2022/10/16 00:06:27;;;;;;;0.40;0.35;;;;;;;22.00;49.99;100839.50;5043906;28;20033;-66
2022/10/16 00:08:52;;;;;;;5.15;0.57;;;;;;;21.99;49.72;100831.53;5060864;28;20067;-66
2022/10/16 00:11:22;;;;;;;2.53;0.38;;;;;;;21.95;49.75;100831.09;5045731;28;20028;-66
2022/10/16 00:13:49;;;;;;;1.58;0.50;;;;;;;21.96;49.39;100821.88;5063347;28;20097;-66
2022/10/16 00:16:15;;;;;;;2.92;0.88;;;;;;;21.91;49.79;100815.34;5027426;28;20024;-66
2022/10/16 00:18:41;;;;;;;0.50;0.50;;;;;;;21.92;49.25;100826.03;5059487;28;20501;-66
2022/10/16 00:21:15;;;;;;;3.20;0.40;;;;;;;21.92;50.37;100822.44;5063154;28;20028;-66
2022/10/16 00:23:41;;;;;;;1.23;0.60;;;;;;;21.85;49.76;100816.09;5060531;28;20020;-66
2022/10/16 00:26:09;;;;;;;0.30;0.25;;;;;;;21.82;49.97;100808.31;5061885;28;20032;-66
2022/10/16 00:28:35;;;;;;;0.85;0.40;;;;;;;21.83;49.69;100812.75;5045344;28;20017;-66
2022/10/16 00:31:09;;;;;;;3.20;0.50;;;;;;;21.80;50.37;100815.88;5061080;28;20531;-66
2022/10/16 00:33:35;;;;;;;1.00;0.63;;;;;;;21.79;50.62;100814.19;5043133;28;20024;-66
2022/10/16 00:36:02;;;;;;;4.90;0.52;;;;;;;21.79;50.57;100806.00;5044046;28;20024;-66
2022/10/16 00:38:27;;;;;;;0.82;0.40;;;;;;;21.78;50.39;100796.97;5045172;28;20082;-66
2022/10/16 00:40:53;;;;;;;0.28;0.25;;;;;;;21.82;49.66;100813.78;5061196;28;20418;-66
2022/10/16 00:43:57;;;;;;;2.40;0.57;;;;;;;21.84;50.52;100823.44;5044317;28;20508;-66
2022/10/16 00:46:26;;;;;;;0.30;0.30;;;;;;;21.86;49.43;100826.81;4968415;28;20042;-66
2022/10/16 00:49:00;;;;;;;0.52;0.50;;;;;;;21.89;50.37;100833.75;4965597;28;20088;-66
2022/10/16 00:51:30;;;;;;;1.02;0.30;;;;;;;21.87;50.25;100839.44;4963162;28;20052;-66
2022/10/16 00:53:56;;;;;;;3.60;0.52;;;;;;;21.89;50.09;100836.50;4962049;28;20046;-66
2022/10/16 00:56:22;;;;;;;1.35;0.43;;;;;;;21.88;49.20;100834.84;4980601;28;20038;-66
2022/10/16 00:58:47;;;;;;;0.45;0.30;;;;;;;21.91;49.48;100845.34;4965661;28;20582;-66
2022/10/16 01:01:13;;;;;;;1.60;0.52;;;;;;;21.93;49.12;100846.81;4979691;28;20066;-66
2022/10/16 01:03:38;;;;;;;1.10;0.40;;;;;;;21.96;49.71;100848.28;4980995;28;20023;-66
2022/10/16 01:06:14;;;;;;;1.70;0.30;;;;;;;21.96;49.99;100843.69;4981147;28;20034;-66
2022/10/16 01:08:57;;;;;;;1.15;0.30;;;;;;;21.98;49.00;100844.31;4964576;28;20106;-66
2022/10/16 01:11:27;;;;;;;;;;;;;;;21.98;49.14;100846.19;4981402;28;20037;-66
2022/10/16 01:13:54;;;;;;;1.50;0.45;;;;;;;21.92;49.20;100836.09;4965445;28;19922;-66
2022/10/16 01:16:27;;;;;;;1.17;0.50;;;;;;;21.88;49.61;100823.91;4964392;28;20429;-66
2022/10/16 01:18:58;;;;;;;1.58;0.60;;;;;;;21.92;49.85;100852.47;4981600;28;20037;-67
2022/10/16 01:21:27;;;;;;;1.30;0.47;;;;;;;21.92;48.90;100852.47;5058596;28;20037;-66
2022/10/16 01:24:11;;;;;;;0.85;0.50;;;;;;;21.91;49.92;100851.63;5042858;28;20013;-66
2022/10/16 01:27:09;;;;;;;3.30;0.65;;;;;;;21.87;49.07;100858.53;5061104;28;20017;-66
2022/10/16 01:29:57;;;;;;;1.58;0.50;;;;;;;21.80;49.50;100851.34;5042009;28;20059;-66
2022/10/16 01:32:37;;;;;;;1.02;0.40;;;;;;;21.82;49.73;100858.28;5044381;28;20139;-66
2022/10/16 01:35:11;;;;;;;2.88;1.13;;;;;;;21.80;49.59;100854.88;5051970;28;20017;-65
2022/10/16 01:37:44;;;;;;;0.95;0.75;;;;;;;21.76;49.68;100847.31;5034092;28;20021;-66
2022/10/16 01:40:12;;;;;;;1.75;0.63;;;;;;;21.72;49.40;100844.13;5033852;28;20067;-66
2022/10/16 01:42:43;;;;;;;2.13;0.50;;;;;;;21.67;49.30;100853.97;5033888;28;20033;-66
2022/10/16 01:45:12;;;;;;;4.47;0.40;;;;;;;21.60;50.02;100853.09;5052413;28;20051;-66
2022/10/16 01:47:39;;;;;;;0.45;0.30;;;;;;;21.62;49.76;100864.63;5037997;28;20029;-66
2022/10/16 01:50:05;;;;;;;1.30;0.68;;;;;;;21.58;50.00;100866.09;5037802;28;20375;-66
2022/10/16 01:52:32;;;;;;;0.90;0.50;;;;;;;21.60;49.93;100869.44;5054182;28;20040;-66
2022/10/16 01:54:58;;;;;;;5.10;0.52;;;;;;;21.60;49.61;100864.00;5054082;28;20560;-66
2022/10/16 01:57:25;;;;;;;2.05;0.98;;;;;;;21.59;49.70;100863.16;5021358;28;20028;-66
2022/10/16 01:59:54;;;;;;;1.00;0.40;;;;;;;21.57;49.36;100864.41;5054135;28;20029;-66
2022/10/16 02:02:20;;;;;;;1.38;0.50;;;;;;;21.53;49.83;100854.91;5055352;28;20048;-66
2022/10/16 02:04:51;;;;;;;2.38;0.43;;;;;;;21.51;49.97;100862.47;5037496;28;20053;-66
2022/10/16 02:07:17;;;;;;;0.32;0.30;;;;;;;21.50;49.26;100858.06;5054069;28;20051;-66
2022/10/16 02:09:42;;;;;;;3.92;0.45;;;;;;;21.50;50.19;100858.06;5053947;28;20025;-66
2022/10/16 02:12:14;;;;;;;0.85;0.40;;;;;;;21.46;49.75;100853.00;5053953;28;20120;-66
2022/10/16 02:14:40;;;;;;;2.40;0.45;;;;;;;21.50;49.98;100858.06;5037208;28;20086;-66
2022/10/16 02:17:12;;;;;;;1.23;0.47;;;;;;;21.51;49.38;100855.13;5037424;28;20029;-66
2022/10/16 02:19:37;;;;;;;0.28;0.25;;;;;;;21.48;50.03;100850.06;5055187;28;20482;-66
2022/10/16 02:22:04;;;;;;;3.03;0.47;;;;;;;21.49;50.20;100851.78;5053693;28;20040;-66
2022/10/16 02:24:35;;;;;;;2.55;0.82;;;;;;;21.48;50.39;100856.38;5053779;28;20021;-66
2022/10/16 02:27:32;;;;;;;1.40;0.40;;;;;;;21.48;49.47;100856.38;5054862;28;20087;-66
2022/10/16 02:30:11;;;;;;;0.30;0.30;;;;;;;21.46;50.00;100853.00;5054028;28;20493;-66
2022/10/16 02:32:40;;;;;;;3.72;0.50;;;;;;;21.44;50.26;100860.53;5053641;28;20025;-66
2022/10/16 02:35:07;;;;;;;3.33;0.80;;;;;;;21.43;49.98;100858.00;5054557;28;20115;-65
2022/10/16 02:37:33;;;;;;;1.30;0.40;;;;;;;21.48;50.16;100867.28;5036779;28;20033;-66
2022/10/16 02:39:58;;;;;;;0.40;0.40;;;;;;;21.48;50.25;100870.00;5036917;28;20033;-66
2022/10/16 02:42:34;;;;;;;0.55;0.30;;;;;;;21.50;50.45;100874.44;5036661;28;20101;-66
2022/10/16 02:44:59;;;;;;;1.85;0.40;;;;;;;21.46;50.11;100868.53;5054870;28;20087;-66
2022/10/16 02:47:24;;;;;;;0.20;0.20;;;;;;;21.45;49.45;100873.13;5054409;28;20033;-66
2022/10/16 02:49:50;;;;;;;2.42;0.38;;;;;;;21.44;49.97;100871.44;5054409;28;20108;-66
2022/10/16 02:52:15;;;;;;;2.20;0.30;;;;;;;21.44;49.45;100862.41;5054258;28;20477;-66
2022/10/16 02:54:41;;;;;;;1.60;0.80;;;;;;;21.44;50.21;100870.59;5054069;28;20563;-66
2022/10/16 02:57:06;;;;;;;1.00;0.50;;;;;;;21.43;50.51;100869.78;5035900;28;20075;-65
2022/10/16 02:59:31;;;;;;;1.52;0.60;;;;;;;21.42;49.91;100862.63;5054334;28;20033;-66
2022/10/16 03:01:57;;;;;;;0.82;0.20;;;;;;;21.44;49.98;100865.97;5052972;28;20498;-66
2022/10/16 03:04:22;;;;;;;0.93;0.25;;;;;;;21.43;49.27;100869.78;5054152;28;20475;-67
2022/10/16 03:06:47;;;;;;;2.92;0.70;;;;;;;21.45;50.12;100854.03;5036165;28;20029;-64
2022/10/16 03:09:13;;;;;;;2.67;0.50;;;;;;;21.46;49.39;100849.44;5036226;28;20098;-66
2022/10/16 03:11:38;;;;;;;0.43;0.38;;;;;;;21.45;50.12;100866.81;5054275;28;20036;-66
2022/10/16 03:14:06;;;;;;;0.70;0.50;;;;;;;21.42;49.70;100861.78;5052752;28;20119;-66
2022/10/16 03:16:31;;;;;;;1.25;0.38;;;;;;;21.44;49.50;100876.88;5052925;28;20029;-66
2022/10/16 03:18:57;;;;;;;1.15;0.40;;;;;;;21.40;50.10;100875.63;5053747;28;20108;-66
2022/10/16 03:21:22;;;;;;;2.53;0.40;;;;;;;21.39;49.43;100879.38;5052967;28;20115;-66
2022/10/16 03:23:48;;;;;;;2.42;0.68;;;;;;;21.36;49.85;100874.31;5053746;28;20020;-66
2022/10/16 03:26:13;;;;;;;2.00;0.45;;;;;;;21.31;50.19;100863.16;5052462;28;20071;-66
2022/10/16 03:28:38;;;;;;;4.03;0.70;;;;;;;21.32;50.07;100878.50;5053614;28;20025;-66
2022/10/16 03:31:04;;;;;;;0.57;0.40;;;;;;;21.31;49.46;100871.34;5052479;28;20027;-66
2022/10/16 03:33:29;;;;;;;5.30;0.60;;;;;;;21.31;49.86;100874.06;5053376;28;20478;-66
2022/10/16 03:35:55;;;;;;;2.80;0.70;;;;;;;21.30;49.82;100866.09;5053556;28;20094;-66
2022/10/16 03:38:20;;;;;;;0.20;0.20;;;;;;;21.31;49.83;100878.66;5053492;28;20053;-66
2022/10/16 03:40:46;;;;;;;1.95;0.38;;;;;;;21.30;49.71;100880.53;5052206;28;20113;-66
2022/10/16 03:43:11;;;;;;;2.15;0.50;;;;;;;21.30;50.27;100899.63;5052120;28;20032;-66
2022/10/16 03:45:37;;;;;;;0.30;0.30;;;;;;;21.28;50.48;100898.97;5053189;28;20027;-66
2022/10/16 03:48:03;;;;;;;2.47;0.60;;;;;;;21.21;50.23;100891.81;5035402;28;20406;-66
2022/10/16 03:50:29;;;;;;;0.85;0.30;;;;;;;21.25;49.74;100895.81;5035402;28;20029;-67
2022/10/16 03:52:56;;;;;;;3.10;0.95;;;;;;;21.19;50.07;100894.72;5053256;28;20115;-66
2022/10/16 03:55:22;;;;;;;0.20;0.20;;;;;;;21.18;49.62;100889.47;5035690;28;20049;-66
2022/10/16 03:57:47;;;;;;;8.25;0.73;;;;;;;21.17;50.43;100902.25;5035296;28;20044;-66
2022/10/16 04:00:13;;;;;;;3.33;0.40;;;;;;;21.15;50.26;100892.59;5035221;28;20541;-66
2022/10/16 04:02:39;;;;;;;2.40;0.82;;;;;;;21.14;50.21;100902.63;5035188;28;20029;-66
2022/10/16 04:05:04;;;;;;;0.60;0.40;;;;;;;21.15;50.72;100903.47;5051919;28;20025;-66
2022/10/16 04:07:30;;;;;;;0.68;0.40;;;;;;;21.10;49.89;100912.25;5050956;28;20116;-66
2022/10/16 04:09:56;;;;;;;0.60;0.30;;;;;;;21.10;50.09;100912.25;5018621;28;20036;-66
2022/10/16 04:12:22;;;;;;;5.00;0.50;;;;;;;21.10;50.27;100922.31;5052847;28;20490;-66
2022/10/16 04:14:47;;;;;;;2.63;0.63;;;;;;;21.10;50.39;100928.59;5052691;28;20037;-66
2022/10/16 04:17:15;;;;;;;4.10;0.60;;;;;;;21.11;49.63;100923.97;5035152;28;20393;-66
2022/10/16 04:19:40;;;;;;;3.97;0.55;;;;;;;21.10;50.63;100922.31;5051597;28;20027;-66
2022/10/16 04:22:06;;;;;;;3.03;0.40;;;;;;;21.10;50.23;100920.44;5035036;28;20110;-66
2022/10/16 04:24:31;;;;;;;0.45;0.43;;;;;;;21.09;49.99;100926.91;5053120;28;20021;-64
2022/10/16 04:26:57;;;;;;;1.40;0.50;;;;;;;21.11;50.14;100933.00;5052847;28;20078;-63
2022/10/16 04:29:22;;;;;;;1.80;0.40;;;;;;;21.11;50.62;100941.16;5052976;28;20052;-64
2022/10/16 04:31:47;;;;;;;1.10;0.50;;;;;;;21.11;50.57;100946.63;5052727;28;20099;-64
2022/10/16 04:34:13;;;;;;;0.40;0.40;;;;;;;21.03;50.38;100932.25;5052559;28;20054;-70
2022/10/16 04:36:38;;;;;;;3.45;0.68;;;;;;;21.08;50.38;100941.56;5034795;28;20061;-64
2022/10/16 04:39:03;;;;;;;0.47;0.40;;;;;;;21.08;49.86;100951.63;5051511;28;20033;-64
2022/10/16 04:41:29;;;;;;;1.35;0.80;;;;;;;21.06;50.46;100949.03;5052516;28;20031;-64
2022/10/16 04:43:54;;;;;;;0.40;0.40;;;;;;;21.05;50.32;100952.81;5034676;28;20108;-64
2022/10/16 04:46:19;;;;;;;3.85;0.52;;;;;;;21.04;50.66;100945.69;5052699;28;20767;-64
2022/10/16 04:48:46;;;;;;;2.92;0.63;;;;;;;21.03;49.71;100952.16;5051350;28;20116;-64
2022/10/16 04:51:11;;;;;;;0.70;0.70;;;;;;;21.04;50.67;100964.75;5051200;28;20033;-64
2022/10/16 04:53:37;;;;;;;5.80;0.88;;;;;;;20.99;50.40;100959.06;5052139;28;20032;-64
2022/10/16 04:56:02;;;;;;;0.70;0.63;;;;;;;21.04;50.69;100962.03;5052279;28;20379;-64
2022/10/16 04:58:28;;;;;;;3.63;0.85;;;;;;;21.03;50.71;100965.78;5034563;28;20033;-64
2022/10/16 05:00:53;;;;;;;0.95;0.57;;;;;;;21.01;50.29;100961.56;5052359;28;20036;-64
2022/10/16 05:03:18;;;;;;;2.72;1.05;;;;;;;20.98;50.70;100957.34;5034418;28;20072;-64
2022/10/16 05:05:45;;;;;;;4.80;1.13;;;;;;;20.92;49.70;100960.84;5052361;28;20036;-64
2022/10/16 05:08:12;;;;;;;1.30;0.70;;;;;;;20.95;50.78;100962.34;5034588;28;20021;-64
2022/10/16 05:10:37;;;;;;;3.47;1.33;;;;;;;20.93;50.51;100970.72;5051225;28;20074;-64
2022/10/16 05:13:03;;;;;;;1.05;0.80;;;;;;;20.91;49.96;100970.03;5052506;28;20438;-63
2022/10/16 05:15:28;;;;;;;2.97;1.15;;;;;;;20.88;50.58;100968.53;5052042;28;20077;-66
2022/10/16 05:17:54;;;;;;;2.90;0.98;;;;;;;20.86;50.13;100976.06;5052064;28;20506;-66
2022/10/16 05:20:20;;;;;;;1.40;0.82;;;;;;;20.83;50.89;100971.00;5054731;28;20078;-66
2022/10/16 05:22:45;;;;;;;1.00;0.77;;;;;;;20.81;50.43;100973.09;5056120;28;20432;-66
2022/10/16 05:25:10;;;;;;;1.35;1.00;;;;;;;20.68;50.73;100958.47;5055006;28;20067;-66
2022/10/16 05:27:36;;;;;;;2.72;0.90;;;;;;;20.78;50.26;100983.50;5038010;28;20025;-66
2022/10/16 05:30:01;;;;;;;1.27;0.75;;;;;;;20.75;50.50;100975.72;5054822;28;20029;-66
2022/10/16 05:32:27;;;;;;;0.70;0.70;;;;;;;20.71;51.45;100967.13;5055895;28;20029;-66
2022/10/16 05:34:52;;;;;;;0.65;0.65;;;;;;;20.69;50.58;100974.63;5054709;28;20053;-66
2022/10/16 05:37:17;;;;;;;2.10;1.27;;;;;;;20.70;51.05;100979.03;5056021;28;20060;-66
2022/10/16 05:39:43;;;;;;;1.45;1.00;;;;;;;20.69;50.56;100990.94;5055875;28;20040;-66
2022/10/16 05:42:08;;;;;;;2.53;0.98;;;;;;;20.68;51.24;100988.44;5037838;28;20037;-66
2022/10/16 05:44:33;;;;;;;5.93;1.42;;;;;;;20.74;50.67;101001.28;5055631;28;20124;-66
2022/10/16 05:46:59;;;;;;;2.08;1.02;;;;;;;20.76;51.06;101018.25;5037857;28;20028;-66
2022/10/16 05:49:24;;;;;;;1.45;0.88;;;;;;;20.76;50.96;101013.66;5055574;28;20459;-66
2022/10/16 05:51:50;;;;;;;2.15;1.05;;;;;;;20.77;51.69;101017.25;5055761;28;20056;-66
2022/10/16 05:54:15;;;;;;;2.53;1.02;;;;;;;20.78;50.48;101024.34;5055236;28;20095;-66
2022/10/16 05:56:40;;;;;;;2.13;1.20;;;;;;;20.79;51.12;101017.88;5055523;28;20057;-67
2022/10/16 05:59:06;;;;;;;2.45;0.88;;;;;;;20.81;51.17;101018.53;5055359;28;20025;-66
2022/10/16 06:01:32;;;;;;;1.02;0.90;;;;;;;20.83;50.68;101032.78;5055657;28;20033;-66
2022/10/16 06:03:57;;;;;;;0.85;0.80;;;;;;;20.85;50.99;101038.91;5037471;28;20492;-67
2022/10/16 06:06:25;;;;;;;1.75;1.25;;;;;;;20.87;50.63;101042.28;5055323;28;20056;-66
2022/10/16 06:08:52;;;;;;;1.13;1.02;;;;;;;20.86;50.59;101040.59;5055284;28;20025;-66
2022/10/16 06:11:19;;;;;;;5.43;1.38;;;;;;;20.87;50.83;101025.94;5055158;28;20029;-67
2022/10/16 06:13:45;;;;;;;3.10;1.10;;;;;;;20.93;50.89;101044.25;5053815;28;20032;-66
2022/10/16 06:16:12;;;;;;;1.75;1.05;;;;;;;20.94;50.97;101054.09;5053942;28;20117;-66
2022/10/16 06:18:38;;;;;;;3.47;0.80;;;;;;;20.94;51.13;101056.81;5055025;28;20029;-66
2022/10/16 06:21:12;;;;;;;2.50;0.95;;;;;;;20.99;51.00;101067.16;5053991;28;20048;-66
2022/10/16 06:23:37;;;;;;;1.08;0.90;;;;;;;20.94;50.57;101061.44;5037164;28;20089;-66
2022/10/16 06:26:10;;;;;;;3.55;1.48;;;;;;;20.99;50.69;101072.59;5053774;28;20045;-66
2022/10/16 06:28:36;;;;;;;1.92;1.33;;;;;;;21.00;50.54;101075.13;5053677;28;20036;-66
2022/10/16 06:31:02;;;;;;;2.20;1.10;;;;;;;21.01;50.91;101065.06;5053848;28;20033;-66
2022/10/16 06:33:28;;;;;;;4.80;1.08;;;;;;;21.02;50.93;101072.22;5054653;28;20047;-66
2022/10/16 06:35:53;;;;;;;1.63;1.52;;;;;;;21.01;50.63;101071.38;5036949;28;20104;-66
2022/10/16 06:38:19;;;;;;;1.42;0.88;;;;;;;21.03;50.88;101085.63;5053536;28;20029;-66
2022/10/16 06:40:44;;;;;;;3.28;1.20;;;;;;;20.97;50.99;101075.50;5053489;28;20033;-66
2022/10/16 06:43:09;;;;;;;2.25;1.33;;;;;;;21.01;50.76;101093.16;5036673;28;20033;-66
2022/10/16 06:45:34;;;;;;;3.92;1.10;;;;;;;20.96;50.40;101090.19;5054440;28;20057;-66
2022/10/16 06:48:00;;;;;;;1.20;1.10;;;;;;;20.99;50.28;101092.53;5053320;28;20032;-66
2022/10/16 06:50:25;;;;;;;1.27;0.80;;;;;;;20.99;51.26;101103.41;5054445;28;20033;-66
2022/10/16 06:52:51;;;;;;;5.03;1.33;;;;;;;20.99;50.83;101100.69;5054337;28;20116;-67
2022/10/16 06:55:17;;;;;;;3.70;1.00;;;;;;;20.95;50.73;101099.38;5054066;28;20037;-66
2022/10/16 06:57:43;;;;;;;1.40;0.90;;;;;;;21.01;50.98;101117.69;5053146;28;20025;-66
2022/10/16 07:00:09;;;;;;;2.88;1.20;;;;;;;21.02;50.88;101122.06;5036638;28;20025;-66
2022/10/16 07:02:34;;;;;;;3.17;0.93;;;;;;;21.04;50.99;101130.94;5054222;28;20444;-66
2022/10/16 07:04:59;;;;;;;1.77;0.82;;;;;;;21.08;50.54;101131.44;5036229;28;20044;-66
2022/10/16 07:07:26;;;;;;;2.20;1.08;;;;;;;21.09;50.72;101127.66;5054145;28;20474;-64
2022/10/16 07:09:51;;;;;;;1.80;0.88;;;;;;;21.10;50.28;101130.19;5052965;28;20051;-66
2022/10/16 07:12:17;;;;;;;5.63;0.98;;;;;;;21.27;50.78;101131.66;5054094;28;20051;-66
2022/10/16 07:14:42;;;;;;;6.35;0.70;;;;;;;21.49;49.98;101132.56;5052589;28;20025;-66
2022/10/16 07:17:08;;;;;;;1.83;0.93;;;;;;;21.68;49.78;101140.09;5036031;28;20033;-66
2022/10/16 07:19:33;;;;;;;1.17;0.80;;;;;;;21.86;50.40;101143.22;5053890;28;20061;-66
2022/10/16 07:21:59;;;;;;;4.93;1.35;;;;;;;22.05;50.19;101141.75;5053813;28;20048;-66
2022/10/16 07:24:24;;;;;;;1.85;0.70;;;;;;;22.24;49.50;101152.00;5053711;28;20111;-66
2022/10/16 07:26:50;;;;;;;2.35;0.93;;;;;;;22.43;49.81;101147.75;5035781;28;20029;-66
2022/10/16 07:29:18;;;;;;;1.75;0.90;;;;;;;22.65;48.95;101154.00;5035644;28;20494;-66
2022/10/16 07:31:44;;;;;;;1.02;0.93;;;;;;;22.86;49.61;101163.00;5035686;28;20060;-67
2022/10/16 07:34:11;;;;;;;3.83;1.00;;;;;;;23.06;48.95;101169.41;5053455;28;20130;-66
2022/10/16 07:36:36;;;;;;;1.98;0.55;;;;;;;23.27;48.85;101170.34;5035765;28;20024;-67
2022/10/16 07:39:02;;;;;;;4.20;1.00;;;;;;;23.43;48.09;101170.03;5053413;28;20501;-66
2022/10/16 07:41:28;;;;;;;6.43;1.20;;;;;;;23.59;49.01;101175.97;5035420;28;20032;-67
2022/10/16 07:43:54;;;;;;;1.55;0.80;;;;;;;23.74;48.58;101162.97;5065211;28;20028;-66
2022/10/16 07:46:21;;;;;;;2.72;0.70;;;;;;;23.88;48.38;101166.59;5031194;28;20017;-66
2022/10/16 07:48:47;;;;;;;2.35;0.73;;;;;;;24.02;47.34;101159.22;5063119;28;20027;-66
2022/10/16 07:51:15;;;;;;;2.28;0.60;;;;;;;24.17;48.04;101162.66;5062132;28;20025;-64
2022/10/16 07:53:40;;;;;;;1.25;0.52;;;;;;;24.30;47.56;101171.72;5043689;28;20513;-64
2022/10/16 07:56:06;;;;;;;1.20;0.88;;;;;;;24.45;47.85;101179.72;5063096;28;20024;-64
2022/10/16 07:58:32;;;;;;;3.33;0.90;;;;;;;24.60;47.53;101184.97;5061859;28;20175;-64
2022/10/16 08:00:58;;;;;;;2.60;0.75;;;;;;;24.72;47.00;101184.13;5061502;28;20056;-64
2022/10/16 08:03:24;;;;;;;2.20;0.82;;;;;;;24.87;46.90;101203.94;5045540;28;20077;-64
2022/10/16 08:05:50;;;;;;;4.15;0.60;;;;;;;25.00;47.15;101214.06;5061438;28;20025;-64
2022/10/16 08:08:16;;;;;;;0.98;0.63;;;;;;;25.15;46.84;101209.19;5043767;28;20021;-64
2022/10/16 08:10:42;;;;;;;1.08;0.40;;;;;;;25.28;46.48;101217.34;5061466;28;20094;-64
2022/10/16 08:13:08;;;;;;;4.72;0.60;;;;;;;25.39;46.14;101215.84;5044781;28;20435;-64
2022/10/16 08:15:33;;;;;;;2.97;0.50;;;;;;;25.54;46.35;101216.47;5062691;28;20025;-64
2022/10/16 08:18:04;;;;;;;0.65;0.60;;;;;;;25.70;46.24;101226.94;5043435;28;20043;-64
2022/10/16 08:20:31;;;;;;;1.20;0.52;;;;;;;25.89;45.69;101220.50;5028184;28;20020;-65
2022/10/16 08:22:56;;;;;;;2.97;0.60;;;;;;;26.07;45.81;101222.50;5028760;28;20020;-64
2022/10/16 08:25:23;;;;;;;5.82;0.60;;;;;;;26.29;45.58;101229.38;5061104;28;20029;-65
2022/10/16 08:27:48;;;;;;;3.03;0.40;;;;;;;26.43;45.29;101238.34;5044827;28;20020;-64
2022/10/16 08:30:15;;;;;;;0.43;0.43;;;;;;;26.61;44.50;101252.13;5065471;28;20030;-64
2022/10/16 08:32:41;;;;;;;1.30;0.50;;;;;;;26.74;45.00;101240.22;5041584;28;20086;-64
2022/10/16 08:35:10;;;;;;;2.92;0.40;;;;;;;26.94;44.69;101249.97;5035663;28;20397;-64
2022/10/16 08:37:36;;;;;;;0.55;0.50;;;;;;;27.10;44.18;101249.41;5019096;28;20060;-64
2022/10/16 08:40:04;;;;;;;1.15;0.47;;;;;;;27.31;44.05;101252.78;5035364;28;20395;-65
2022/10/16 08:42:57;;;;;;;1.98;0.50;;;;;;;27.53;44.31;101259.53;5062259;28;20082;-64
2022/10/16 08:45:40;;;;;;;;;;;;;;;27.75;44.52;101260.75;5055824;28;20078;-64
2022/10/16 08:48:19;;;;;;;0.55;0.30;;;;;;;27.98;44.42;101263.63;5073226;28;19908;-64
2022/10/16 08:50:45;;;;;;;2.00;0.30;;;;;;;28.15;43.68;101261.06;5055274;28;20058;-64
2022/10/16 08:53:20;;;;;;;0.38;0.38;;;;;;;28.28;42.95;101260.91;5038114;28;20021;-65
2022/10/16 08:55:46;;;;;;;0.40;0.28;;;;;;;28.48;43.39;101266.09;5051664;28;20048;-64
2022/10/16 08:58:14;;;;;;;1.80;0.30;;;;;;;28.63;42.40;101269.28;5053164;28;20025;-64
2022/10/16 09:00:40;;;;;;;1.77;0.70;;;;;;;28.80;42.84;101267.50;5051896;28;20024;-64
2022/10/16 09:03:16;;;;;;;0.57;0.22;;;;;;;28.96;42.38;101272.31;5051836;28;20025;-64
2022/10/16 09:05:45;;;;;;;2.05;0.50;;;;;;;29.17;41.87;101271.72;5051856;28;20021;-64
2022/10/16 09:08:34;;;;;;;3.28;0.47;;;;;;;29.36;41.34;101281.59;5052858;28;20025;-64
2022/10/16 09:11:14;;;;;;;1.58;0.30;;;;;;;29.57;41.25;101273.72;5051870;28;20114;-64
2022/10/16 09:13:43;;;;;;;0.70;0.32;;;;;;;29.98;40.77;101274.38;5051605;28;20025;-65
2022/10/16 09:16:18;;;;;;;0.73;0.30;;;;;;;30.66;39.86;101276.22;5034924;28;20033;-66
2022/10/16 09:18:59;;;;;;;0.63;0.30;;;;;;;31.50;38.41;101277.88;5051248;28;20210;-65
2022/10/16 09:21:31;;;;;;;1.50;0.40;;;;;;;31.96;37.83;101284.00;5051738;28;20129;-63
2022/10/16 09:24:00;;;;;;;3.40;0.43;;;;;;;31.83;37.41;101287.16;5051544;28;20020;-65
2022/10/16 09:26:25;;;;;;;1.27;0.30;;;;;;;31.92;37.08;101277.28;5052815;28;20432;-65
2022/10/16 09:28:52;;;;;;;1.60;0.20;;;;;;;32.14;37.92;101278.13;5051608;28;20032;-65
2022/10/16 09:31:19;;;;;;;0.73;0.22;;;;;;;32.34;37.47;101278.34;5051594;28;20055;-65
2022/10/16 09:33:49;;;;;;;2.63;0.30;;;;;;;32.58;37.13;101274.16;5051624;28;20501;-65
2022/10/16 09:36:14;;;;;;;0.98;0.43;;;;;;;32.81;36.29;101268.25;5035144;28;20052;-65
2022/10/16 09:38:40;;;;;;;1.10;0.45;;;;;;;33.18;35.86;101284.09;5051401;28;20504;-65
2022/10/16 09:41:18;;;;;;;1.77;0.50;;;;;;;33.47;35.91;101274.28;5052905;28;20029;-66
2022/10/16 09:43:50;;;;;;;0.82;0.40;;;;;;;33.71;34.47;101289.44;5051471;28;20029;-66
2022/10/16 09:46:26;;;;;;;1.58;0.50;;;;;;;34.07;34.42;101275.66;5052515;28;20025;-66
2022/10/16 09:48:56;;;;;;;3.78;0.88;;;;;;;34.30;33.60;101269.63;5052572;28;20070;-66
2022/10/16 09:51:25;;;;;;;1.75;0.40;;;;;;;34.44;34.69;101276.34;5052555;28;20039;-66
2022/10/16 09:54:09;;;;;;;4.13;0.57;;;;;;;34.60;33.08;101280.00;5053791;28;20029;-66
2022/10/16 09:56:36;;;;;;;0.88;0.28;;;;;;;34.89;33.57;101270.81;5072492;28;20113;-66
2022/10/16 09:59:13;;;;;;;0.70;0.20;;;;;;;35.13;32.93;101273.88;5054856;28;20035;-66
2022/10/16 10:01:41;;;;;;;1.52;0.50;;;;;;;34.97;32.79;101278.59;5072517;28;20033;-66
2022/10/16 10:04:07;;;;;;;2.22;0.35;;;;;;;35.20;32.42;101274.44;5054717;28;20021;-66
2022/10/16 10:06:40;;;;;;;0.93;0.30;;;;;;;35.30;32.59;101279.13;5056822;28;20021;-66
2022/10/16 10:09:06;;;;;;;0.30;0.30;;;;;;;35.48;32.15;101281.31;5058375;28;20367;-66
2022/10/16 10:11:53;;;;;;;1.98;0.32;;;;;;;35.75;31.96;101275.38;5075918;28;20050;-66
2022/10/16 10:14:36;;;;;;;0.40;0.20;;;;;;;35.86;31.74;101277.84;5058056;28;20020;-66
2022/10/16 10:17:06;;;;;;;;;;;;;;;35.97;32.36;101276.69;5059000;28;20029;-66
2022/10/16 10:19:47;;;;;;;2.08;0.40;;;;;;;36.12;31.00;101282.22;5058027;28;20270;-66
2022/10/16 10:22:26;;;;;;;2.05;0.45;;;;;;;36.35;31.86;101268.69;5075790;28;20028;-66
2022/10/16 10:25:15;;;;;;;0.95;0.30;;;;;;;36.53;31.29;101279.16;5075761;28;20024;-66
2022/10/16 10:28:09;;;;;;;0.73;0.40;;;;;;;36.68;30.67;101281.84;5047797;28;20032;-66
2022/10/16 10:30:36;;;;;;;3.05;0.50;;;;;;;36.75;30.83;101282.34;5075643;28;20024;-66
2022/10/16 10:33:26;;;;;;;0.52;0.20;;;;;;;36.81;30.50;101272.78;5057745;28;20024;-65
2022/10/16 10:36:09;;;;;;;4.93;0.40;;;;;;;36.98;30.18;101281.63;5075563;28;20086;-62
2022/10/16 10:38:47;;;;;;;1.98;0.38;;;;;;;36.96;30.55;101296.97;5075515;28;20550;-62
2022/10/16 10:41:31;;;;;;;1.73;0.38;;;;;;;37.10;30.37;101287.66;5075758;28;20097;-62
2022/10/16 10:44:07;;;;;;;1.05;0.40;;;;;;;37.25;30.15;101287.47;5075539;28;20108;-62
2022/10/16 10:46:41;;;;;;;2.47;0.30;;;;;;;37.44;29.40;101293.16;5057465;28;20028;-63
2022/10/16 10:49:16;;;;;;;1.63;0.32;;;;;;;37.54;29.21;101297.84;5075319;28;20469;-63
2022/10/16 10:51:57;;;;;;;1.38;0.50;;;;;;;36.88;29.71;101300.41;5075210;28;20020;-63
2022/10/16 10:54:32;;;;;;;0.40;0.38;;;;;;;36.72;29.91;101302.47;5075013;28;20044;-63
2022/10/16 10:57:16;;;;;;;4.57;0.35;;;;;;;36.62;29.67;101302.56;5057510;28;20370;-62
2022/10/16 11:00:06;;;;;;;1.40;0.20;;;;;;;36.84;29.09;101300.16;5075366;28;20020;-63
2022/10/16 11:02:41;;;;;;;2.17;0.52;;;;;;;35.55;30.48;101299.44;5040549;28;20021;-63
2022/10/16 11:05:32;;;;;;;0.13;0.10;;;;;;;34.77;30.41;101303.66;5057109;28;20478;-63
2022/10/16 11:08:29;;;;;;;1.77;0.40;;;;;;;34.07;31.81;101303.47;5057150;28;20025;-62
2022/10/16 11:10:58;;;;;;;4.97;0.47;;;;;;;33.91;30.92;101309.00;5057025;28;20037;-62
2022/10/16 11:13:33;;;;;;;1.10;0.30;;;;;;;33.93;31.44;101315.13;5074773;28;20036;-62
2022/10/16 11:16:02;;;;;;;1.45;0.40;;;;;;;34.34;31.15;101318.06;5074608;28;20090;-62
2022/10/16 11:18:55;;;;;;;1.17;0.50;;;;;;;33.71;31.14;101311.69;5074779;28;20031;-62
2022/10/16 11:21:21;;;;;;;0.40;0.40;;;;;;;32.97;31.87;101310.03;5074674;28;20464;-62
2022/10/16 11:23:58;;;;;;;0.73;0.35;;;;;;;32.80;31.79;101304.63;5056765;28;20025;-62
2022/10/16 11:26:27;;;;;;;2.38;0.52;;;;;;;33.00;32.54;101320.63;5056769;28;20052;-62
2022/10/16 11:28:55;;;;;;;2.67;0.30;;;;;;;32.93;31.40;101314.44;5056575;28;20474;-62
2022/10/16 11:31:29;;;;;;;0.43;0.30;;;;;;;32.48;32.47;101318.44;5056662;28;20025;-62
2022/10/16 11:34:18;;;;;;;2.05;0.30;;;;;;;32.72;32.53;101317.03;5039945;28;20028;-62
2022/10/16 11:37:09;;;;;;;2.55;0.30;;;;;;;33.37;31.52;101311.19;5074386;28;20020;-62